createdAt,value
2018-11-29T00:02:26.809Z,89.10
2018-11-29T00:04:59.806Z,88.91
2018-11-29T00:07:39.109Z,88.39
2018-11-29T00:10:11.178Z,87.31
2018-11-29T00:12:44.137Z,88.59
2018-11-29T00:15:17.298Z,88.15
2018-11-29T00:17:49.355Z,88.71
2018-11-29T00:20:24.578Z,88.62
2018-11-29T00:22:56.528Z,88.29
2018-11-29T00:25:28.623Z,88.53
2018-11-29T00:28:00.664Z,88.48
2018-11-29T00:30:32.797Z,87.45
2018-11-29T00:33:04.840Z,88.74
2018-11-29T00:35:36.978Z,87.37
2018-11-29T00:38:09.204Z,86.76
2018-11-29T00:40:41.243Z,88.85
2018-11-29T00:43:13.331Z,89.29
2018-11-29T00:45:45.421Z,89.43
2018-11-29T00:48:17.501Z,89.00
2018-11-29T00:50:49.583Z,89.11
2018-11-29T00:53:21.675Z,87.22
2018-11-29T00:55:53.758Z,87.13
2018-11-29T00:58:25.730Z,87.19
2018-11-29T01:00:57.813Z,87.78
2018-11-29T01:03:29.844Z,88.49
2018-11-29T01:06:01.860Z,87.43
2018-11-29T01:08:33.979Z,87.39
2018-11-29T01:11:06.174Z,86.84
2018-11-29T01:13:38.214Z,86.92
2018-11-29T01:16:10.363Z,89.33
2018-11-29T01:18:42.419Z,89.32
2018-11-29T01:21:14.533Z,88.00
2018-11-29T01:23:46.520Z,88.49
2018-11-29T01:26:18.635Z,88.14
2018-11-29T01:28:50.694Z,88.17
2018-11-29T01:31:22.779Z,87.13
2018-11-29T01:33:54.847Z,87.38
2018-11-29T01:36:26.936Z,88.88
2018-11-29T01:38:58.981Z,87.84
2018-11-29T01:41:31.088Z,87.84
2018-11-29T01:44:03.152Z,88.39
2018-11-29T01:46:35.257Z,88.88
2018-11-29T01:49:07.318Z,88.15
2018-11-29T01:51:39.432Z,87.46
2018-11-29T01:54:11.500Z,87.22
2018-11-29T01:56:43.614Z,86.90
2018-11-29T01:59:15.712Z,86.94
2018-11-29T02:01:47.808Z,87.42
2018-11-29T02:04:19.924Z,87.18
2018-11-29T02:06:51.992Z,87.73
2018-11-29T02:09:24.973Z,88.95
2018-11-29T02:11:57.062Z,87.70
2018-11-29T02:14:29.140Z,88.68
2018-11-29T02:17:01.341Z,88.62
2018-11-29T02:19:33.410Z,89.18
2018-11-29T02:22:05.716Z,88.79
2018-11-29T02:24:37.688Z,88.33
2018-11-29T02:27:10.709Z,88.42
2018-11-29T02:29:42.900Z,89.38
2018-11-29T02:32:15.008Z,89.09
2018-11-29T02:34:47.061Z,89.93
2018-11-29T02:37:19.173Z,89.90
2018-11-29T02:39:51.281Z,90.11
2018-11-29T02:42:23.427Z,90.00
2018-11-29T02:44:55.510Z,89.07
2018-11-29T02:47:27.606Z,89.26
2018-11-29T02:49:59.673Z,89.60
2018-11-29T02:52:31.755Z,89.60
2018-11-29T02:55:03.828Z,88.57
2018-11-29T02:57:36.131Z,88.88
2018-11-29T03:00:17.594Z,89.79
2018-11-29T03:02:49.719Z,90.18
2018-11-29T03:05:21.832Z,89.10
2018-11-29T03:07:53.798Z,89.27
2018-11-29T03:10:28.685Z,88.77
2018-11-29T03:13:00.768Z,89.32
2018-11-29T03:15:32.864Z,89.78
2018-11-29T03:18:04.967Z,89.00
2018-11-29T03:20:37.094Z,88.60
2018-11-29T03:23:09.526Z,88.09
2018-11-29T03:25:41.655Z,89.53
2018-11-29T03:28:13.757Z,89.16
2018-11-29T03:30:45.829Z,89.64
2018-11-29T03:33:18.861Z,91.21
2018-11-29T03:35:50.845Z,90.55
2018-11-29T03:38:22.938Z,89.65
2018-11-29T03:40:55.009Z,90.66
2018-11-29T03:43:27.218Z,89.96
2018-11-29T03:45:59.250Z,91.32
2018-11-29T03:48:31.315Z,90.08
2018-11-29T03:51:03.297Z,90.29
2018-11-29T03:53:35.438Z,90.51
2018-11-29T03:56:08.060Z,90.91
2018-11-29T03:58:40.184Z,90.61
2018-11-29T04:01:12.248Z,89.54
2018-11-29T04:03:44.337Z,88.70
2018-11-29T04:06:16.399Z,88.77
2018-11-29T04:08:48.525Z,89.32
2018-11-29T04:11:20.625Z,89.84
2018-11-29T04:13:52.666Z,89.83
2018-11-29T04:16:24.744Z,90.36
2018-11-29T04:18:56.928Z,89.17
2018-11-29T04:21:29.020Z,89.37
2018-11-29T04:24:01.096Z,88.69
2018-11-29T04:26:33.185Z,88.50
2018-11-29T04:29:05.282Z,89.41
2018-11-29T04:31:38.277Z,88.01
2018-11-29T04:34:10.346Z,87.58
2018-11-29T04:36:42.400Z,87.76
2018-11-29T04:39:14.480Z,88.83
2018-11-29T04:41:46.543Z,88.93
2018-11-29T04:44:18.614Z,88.32
2018-11-29T04:46:52.255Z,87.87
2018-11-29T04:49:24.399Z,88.10
2018-11-29T04:51:56.462Z,87.00
2018-11-29T04:54:28.545Z,87.60
2018-11-29T04:57:00.605Z,88.18
2018-11-29T04:59:32.653Z,87.70
2018-11-29T05:02:04.748Z,87.40
2018-11-29T05:04:36.969Z,87.02
2018-11-29T05:07:09.076Z,87.68
2018-11-29T05:09:41.285Z,87.58
2018-11-29T05:12:13.468Z,89.10
2018-11-29T05:14:45.782Z,88.53
2018-11-29T05:17:17.854Z,87.94
2018-11-29T05:19:49.939Z,87.89
2018-11-29T05:22:22.041Z,87.93
2018-11-29T05:24:54.164Z,87.37
2018-11-29T05:27:26.361Z,87.76
2018-11-29T05:29:58.521Z,88.38
2018-11-29T05:32:30.605Z,86.05
2018-11-29T05:35:02.715Z,86.36
2018-11-29T05:37:35.671Z,87.40
2018-11-29T05:40:12.879Z,87.30
2018-11-29T05:42:45.291Z,86.95
2018-11-29T05:45:18.316Z,86.03
2018-11-29T05:47:50.421Z,88.70
2018-11-29T05:50:25.353Z,87.11
2018-11-29T05:52:57.340Z,88.27
2018-11-29T05:55:29.500Z,89.35
2018-11-29T05:58:01.501Z,88.25
2018-11-29T06:00:34.549Z,87.56
2018-11-29T06:03:06.720Z,89.13
2018-11-29T06:05:39.502Z,88.51
2018-11-29T06:08:11.671Z,88.86
2018-11-29T06:10:43.740Z,87.45
2018-11-29T06:13:15.804Z,88.78
2018-11-29T06:15:47.814Z,88.29
2018-11-29T06:18:19.875Z,88.43
2018-11-29T06:20:52.114Z,89.05
2018-11-29T06:23:24.210Z,87.61
2018-11-29T06:25:56.374Z,87.94
2018-11-29T06:28:28.466Z,85.26
2018-11-29T06:31:00.643Z,84.97
2018-11-29T06:33:32.794Z,84.36
2018-11-29T06:36:04.972Z,85.23
2018-11-29T06:38:37.136Z,84.56
2018-11-29T06:41:09.737Z,87.75
2018-11-29T06:43:41.868Z,87.40
2018-11-29T06:46:13.973Z,85.90
2018-11-29T06:48:46.068Z,88.58
2018-11-29T06:51:18.273Z,88.29
2018-11-29T06:53:59.866Z,89.17
2018-11-29T06:56:31.987Z,88.44
2018-11-29T06:59:04.084Z,89.36
2018-11-29T07:01:36.275Z,88.69
2018-11-29T07:04:08.466Z,87.74
2018-11-29T07:06:40.485Z,87.57
2018-11-29T07:09:12.540Z,87.64
2018-11-29T07:11:44.643Z,88.44
2018-11-29T07:14:16.695Z,89.84
2018-11-29T07:16:48.794Z,88.83
2018-11-29T07:19:20.889Z,87.85
2018-11-29T07:21:57.248Z,87.32
2018-11-29T07:24:29.356Z,86.98
2018-11-29T07:27:01.484Z,87.04
2018-11-29T07:29:36.536Z,85.98
2018-11-29T07:32:11.864Z,87.15
2018-11-29T07:34:44.848Z,85.99
2018-11-29T07:37:17.450Z,86.60
2018-11-29T07:39:49.650Z,85.59
2018-11-29T07:42:21.759Z,84.89
2018-11-29T07:44:53.889Z,86.08
2018-11-29T07:47:26.076Z,83.62
2018-11-29T07:49:58.205Z,83.58
2018-11-29T07:52:30.354Z,82.86
2018-11-29T07:55:02.455Z,84.94
2018-11-29T07:57:34.577Z,84.32
2018-11-29T08:00:09.000Z,85.90
2018-11-29T08:02:41.095Z,85.60
2018-11-29T08:05:14.973Z,85.59
2018-11-29T08:07:50.750Z,84.39
2018-11-29T08:10:23.097Z,83.15
2018-11-29T08:12:55.195Z,83.41
2018-11-29T08:15:27.327Z,83.31
2018-11-29T08:17:59.511Z,82.77
2018-11-29T08:20:31.585Z,83.76
2018-11-29T08:23:03.697Z,80.79
2018-11-29T08:25:35.816Z,82.64
2018-11-29T08:28:08.066Z,80.55
2018-11-29T08:30:40.155Z,81.37
2018-11-29T08:33:12.300Z,81.40
2018-11-29T08:35:44.453Z,79.92
2018-11-29T08:38:16.615Z,79.08
2018-11-29T08:40:48.810Z,77.83
2018-11-29T08:43:23.060Z,77.15
2018-11-29T08:45:55.257Z,78.08
2018-11-29T08:48:27.372Z,77.61
2018-11-29T08:50:59.514Z,75.99
2018-11-29T08:53:31.629Z,78.48
2018-11-29T08:56:03.703Z,78.02
2018-11-29T08:58:35.876Z,77.71
2018-11-29T09:01:08.066Z,78.63
2018-11-29T09:03:40.174Z,78.21
2018-11-29T09:06:12.216Z,79.17
2018-11-29T09:08:44.416Z,78.66
2018-11-29T09:11:16.484Z,79.04
2018-11-29T09:13:48.575Z,78.32
2018-11-29T09:16:20.633Z,76.12
2018-11-29T09:18:52.727Z,68.66
2018-11-29T09:21:24.832Z,69.85
2018-11-29T09:23:57.108Z,71.00
2018-11-29T09:26:29.367Z,73.56
2018-11-29T09:29:01.520Z,73.84
2018-11-29T09:31:33.791Z,70.89
2018-11-29T09:34:06.166Z,70.97
2018-11-29T09:36:38.311Z,74.33
2018-11-29T09:39:11.627Z,72.64
2018-11-29T09:41:43.782Z,74.40
2018-11-29T09:44:15.958Z,73.62
2018-11-29T09:46:48.069Z,74.22
2018-11-29T09:49:20.158Z,74.72
2018-11-29T09:51:52.249Z,75.10
2018-11-29T09:54:24.361Z,76.32
2018-11-29T09:56:56.441Z,75.24
2018-11-29T09:59:28.622Z,74.49
2018-11-29T10:02:00.717Z,73.34
2018-11-29T10:04:32.847Z,73.03
2018-11-29T10:07:04.987Z,70.06
2018-11-29T10:09:37.032Z,72.39
2018-11-29T10:12:09.159Z,71.55
2018-11-29T10:14:42.290Z,70.44
2018-11-29T10:17:14.389Z,72.79
2018-11-29T10:19:46.560Z,71.12
2018-11-29T10:22:18.667Z,70.51
2018-11-29T10:24:50.735Z,71.55
2018-11-29T10:27:22.826Z,69.93
2018-11-29T10:29:54.819Z,69.92
2018-11-29T10:32:27.817Z,71.25
2018-11-29T10:35:00.134Z,72.12
2018-11-29T10:37:32.395Z,72.64
2018-11-29T10:40:05.127Z,71.48
2018-11-29T10:42:37.257Z,70.00
2018-11-29T10:45:16.949Z,69.62
2018-11-29T10:47:52.505Z,69.64
2018-11-29T10:50:23.891Z,69.32
2018-11-29T10:52:55.940Z,70.46
2018-11-29T10:55:28.083Z,70.08
2018-11-29T10:58:00.281Z,70.41
2018-11-29T11:00:54.117Z,68.17
2018-11-29T11:03:26.246Z,69.74
2018-11-29T11:05:58.375Z,68.18
2018-11-29T11:08:30.453Z,71.64
2018-11-29T11:11:08.899Z,70.01
2018-11-29T11:13:41.331Z,69.47
2018-11-29T11:16:16.944Z,68.50
2018-11-29T11:18:49.044Z,68.36
2018-11-29T11:21:21.207Z,69.23
2018-11-29T11:23:59.201Z,68.63
2018-11-29T11:26:26.311Z,68.64
2018-11-29T11:28:58.388Z,68.95
2018-11-29T11:31:31.234Z,69.66
2018-11-29T11:34:03.466Z,69.62
2018-11-29T11:36:35.654Z,70.13
2018-11-29T11:39:09.857Z,69.76
2018-11-29T11:41:42.066Z,68.32
2018-11-29T11:44:14.287Z,70.67
2018-11-29T11:46:46.423Z,69.94
2018-11-29T11:49:18.527Z,67.92
2018-11-29T11:51:50.643Z,69.49
2018-11-29T11:54:22.642Z,69.07
2018-11-29T11:56:54.868Z,68.14
2018-11-29T11:59:26.941Z,68.99
2018-11-29T12:01:59.531Z,68.53
2018-11-29T12:04:31.798Z,68.27
2018-11-29T12:07:04.048Z,67.36
2018-11-29T12:09:36.292Z,68.33
2018-11-29T12:12:08.844Z,69.23
2018-11-29T12:14:41.067Z,67.61
2018-11-29T12:17:13.131Z,68.16
2018-11-29T12:19:45.252Z,68.62
2018-11-29T12:22:17.383Z,68.01
2018-11-29T12:24:50.407Z,68.29
2018-11-29T12:27:22.508Z,67.37
2018-11-29T12:29:54.675Z,67.10
2018-11-29T12:32:26.916Z,68.57
2018-11-29T12:34:58.980Z,68.58
2018-11-29T12:37:31.150Z,69.42
2018-11-29T12:40:03.241Z,68.52
2018-11-29T12:42:35.441Z,69.35
2018-11-29T12:45:12.376Z,69.11
2018-11-29T12:47:45.106Z,69.15
2018-11-29T12:50:25.019Z,70.17
2018-11-29T12:52:57.052Z,71.19
2018-11-29T12:55:29.561Z,71.24
2018-11-29T12:58:05.721Z,71.91
2018-11-29T13:00:34.857Z,70.71
2018-11-29T13:05:42.251Z,69.23
2018-11-29T13:08:14.374Z,69.31
2018-11-29T13:10:46.685Z,70.73
2018-11-29T13:13:18.888Z,70.51
2018-11-29T13:15:51.032Z,70.11
2018-11-29T13:18:23.171Z,70.60
2018-11-29T13:21:03.604Z,71.36
2018-11-29T13:23:35.790Z,71.42
2018-11-29T13:26:08.159Z,72.09
2018-11-29T13:28:40.194Z,72.05
2018-11-29T13:31:12.274Z,71.57
2018-11-29T13:33:44.423Z,70.59
2018-11-29T13:36:16.479Z,69.51
2018-11-29T13:38:48.588Z,69.85
2018-11-29T13:41:20.655Z,72.07
2018-11-29T13:43:53.638Z,71.71
2018-11-29T13:46:25.740Z,72.31
2018-11-29T13:48:57.879Z,72.20
2018-11-29T13:51:29.956Z,73.07
2018-11-29T13:54:02.073Z,72.12
2018-11-29T13:56:34.371Z,73.57
2018-11-29T13:59:06.587Z,72.54
2018-11-29T14:01:38.917Z,72.39
2018-11-29T14:04:11.094Z,73.78
2018-11-29T14:06:43.192Z,73.74
2018-11-29T14:09:15.356Z,71.84
2018-11-29T14:11:47.458Z,72.21
2018-11-29T14:14:19.678Z,71.96
2018-11-29T14:16:51.803Z,72.95
2018-11-29T14:19:24.026Z,73.37
2018-11-29T14:21:56.102Z,72.45
2018-11-29T14:24:28.213Z,75.12
2018-11-29T14:27:00.311Z,74.50
2018-11-29T14:29:32.414Z,75.53
2018-11-29T14:32:04.561Z,74.89
2018-11-29T14:34:36.697Z,75.65
2018-11-29T14:37:09.923Z,75.34
2018-11-29T14:39:41.949Z,76.01
2018-11-29T14:42:14.026Z,74.44
2018-11-29T14:44:46.084Z,73.67
2018-11-29T14:47:18.239Z,74.65
2018-11-29T14:49:50.257Z,74.13
2018-11-29T14:52:22.415Z,74.52
2018-11-29T14:54:54.648Z,73.53
2018-11-29T14:57:26.649Z,74.79
2018-11-29T14:59:59.540Z,73.97
2018-11-29T15:02:31.619Z,75.13
2018-11-29T15:05:07.752Z,76.18
2018-11-29T15:07:36.892Z,76.75
2018-11-29T15:10:10.775Z,76.12
2018-11-29T15:12:42.953Z,77.11
2018-11-29T15:15:15.762Z,77.75
2018-11-29T15:17:48.888Z,75.33
2018-11-29T15:20:35.568Z,76.61
2018-11-29T15:23:09.710Z,77.25
2018-11-29T15:25:41.857Z,77.24
2018-11-29T15:28:13.941Z,75.73
2018-11-29T15:30:46.101Z,76.15
2018-11-29T15:33:18.180Z,75.93
2018-11-29T15:35:50.367Z,76.07
2018-11-29T15:38:22.573Z,76.03
2018-11-29T15:40:54.764Z,76.03
2018-11-29T15:43:26.776Z,75.89
2018-11-29T15:45:59.041Z,76.55
2018-11-29T15:48:31.165Z,76.18
2018-11-29T15:51:03.339Z,77.56
2018-11-29T15:53:35.458Z,76.62
2018-11-29T15:56:07.617Z,77.68
2018-11-29T15:58:39.710Z,78.19
2018-11-29T16:01:11.779Z,77.64
2018-11-29T16:03:44.075Z,77.77
2018-11-29T16:06:18.626Z,76.89
2018-11-29T16:08:49.124Z,76.63
2018-11-29T16:11:21.358Z,78.92
2018-11-29T16:13:53.465Z,79.63
2018-11-29T16:16:25.568Z,79.33
2018-11-29T16:18:57.759Z,80.35
2018-11-29T16:21:29.863Z,78.56
2018-11-29T16:24:01.960Z,79.34
2018-11-29T16:26:34.107Z,78.97
2018-11-29T16:29:06.571Z,79.32
2018-11-29T16:31:38.758Z,79.53
2018-11-29T16:34:10.821Z,80.40
2018-11-29T16:36:42.996Z,80.05
2018-11-29T16:39:15.221Z,80.26
2018-11-29T16:41:47.290Z,80.86
2018-11-29T16:44:19.438Z,81.02
2018-11-29T16:46:51.564Z,79.38
2018-11-29T16:49:23.732Z,80.82
2018-11-29T16:51:55.912Z,79.71
2018-11-29T16:54:27.973Z,80.94
2018-11-29T16:57:00.119Z,81.60
2018-11-29T16:59:32.223Z,80.80
2018-11-29T17:02:04.491Z,79.04
2018-11-29T17:04:36.747Z,79.24
2018-11-29T17:07:09.396Z,79.35
2018-11-29T17:09:41.612Z,80.05
2018-11-29T17:12:14.598Z,80.81
2018-11-29T17:14:46.685Z,81.69
2018-11-29T17:17:18.831Z,81.81
2018-11-29T17:19:50.983Z,82.72
2018-11-29T17:22:23.127Z,82.51
2018-11-29T17:24:55.245Z,82.43
2018-11-29T17:27:27.430Z,82.03
2018-11-29T17:29:59.526Z,82.22
2018-11-29T17:32:31.697Z,82.26
2018-11-29T17:35:03.956Z,82.59
2018-11-29T17:37:36.318Z,82.93
2018-11-29T17:40:15.132Z,83.07
2018-11-29T17:42:47.282Z,83.23
2018-11-29T17:45:29.222Z,83.09
2018-11-29T17:48:12.668Z,83.43
2018-11-29T17:50:45.959Z,83.50
2018-11-29T17:53:19.456Z,82.60
2018-11-29T17:55:51.519Z,83.45
2018-11-29T17:58:23.631Z,82.91
2018-11-29T18:00:55.913Z,83.74
2018-11-29T18:03:28.048Z,84.31
2018-11-29T18:06:00.103Z,84.63
2018-11-29T18:08:32.411Z,84.01
2018-11-29T18:11:04.496Z,84.11
2018-11-29T18:13:38.793Z,84.47
2018-11-29T18:16:10.936Z,85.13
2018-11-29T18:18:43.075Z,84.20
2018-11-29T18:21:15.154Z,85.17
2018-11-29T18:23:47.275Z,85.90
2018-11-29T18:26:19.468Z,84.80
2018-11-29T18:28:51.831Z,84.40
2018-11-29T18:31:23.947Z,85.49
2018-11-29T18:33:56.468Z,86.47
2018-11-29T18:36:28.705Z,85.92
2018-11-29T18:39:01.432Z,85.70
2018-11-29T18:41:34.447Z,85.90
2018-11-29T18:44:06.924Z,86.63
2018-11-29T18:46:39.041Z,86.78
2018-11-29T18:49:11.272Z,86.28
2018-11-29T18:51:43.355Z,85.88
2018-11-29T18:54:15.621Z,86.97
2018-11-29T18:56:47.716Z,86.82
2018-11-29T18:59:19.818Z,85.98
2018-11-29T19:01:51.892Z,88.43
2018-11-29T19:04:23.995Z,89.15
2018-11-29T19:06:56.079Z,88.22
2018-11-29T19:09:28.273Z,88.72
2018-11-29T19:12:00.393Z,87.46
2018-11-29T19:14:32.522Z,87.45
2018-11-29T19:17:04.580Z,86.39
2018-11-29T19:19:36.688Z,85.86
2018-11-29T19:22:08.864Z,86.53
2018-11-29T19:24:40.983Z,87.25
2018-11-29T19:27:13.112Z,86.06
2018-11-29T19:29:45.212Z,86.80
2018-11-29T19:32:17.285Z,86.14
2018-11-29T19:34:49.401Z,86.03
2018-11-29T19:37:21.525Z,86.28
2018-11-29T19:39:53.635Z,85.40
2018-11-29T19:42:25.780Z,85.19
2018-11-29T19:44:58.063Z,83.94
2018-11-29T19:47:31.086Z,83.54
2018-11-29T19:50:03.177Z,84.74
2018-11-29T19:52:35.331Z,84.66
2018-11-29T19:55:09.137Z,84.77
2018-11-29T19:57:41.319Z,84.78
2018-11-29T20:00:15.314Z,84.10
2018-11-29T20:02:48.607Z,84.13
2018-11-29T20:05:20.809Z,84.42
2018-11-29T20:07:53.183Z,84.27
2018-11-29T20:10:25.477Z,84.90
2018-11-29T20:13:07.816Z,84.55
2018-11-29T20:15:45.126Z,85.18
2018-11-29T20:18:17.663Z,83.50
2018-11-29T20:20:49.740Z,84.16
2018-11-29T20:23:21.872Z,84.20
2018-11-29T20:25:54.142Z,83.90
2018-11-29T20:28:26.255Z,85.20
2018-11-29T20:30:58.380Z,84.39
2018-11-29T20:33:30.630Z,84.09
2018-11-29T20:36:02.735Z,83.44
2018-11-29T20:38:34.904Z,84.09
2018-11-29T20:41:07.677Z,84.01
2018-11-29T20:43:40.635Z,85.28
2018-11-29T20:46:12.787Z,84.33
2018-11-29T20:48:45.409Z,84.64
2018-11-29T20:51:17.559Z,84.67
2018-11-29T20:53:49.660Z,84.50
2018-11-29T20:56:21.830Z,84.37
2018-11-29T20:58:55.293Z,85.90
2018-11-29T21:01:27.503Z,86.47
2018-11-29T21:03:59.601Z,86.88
2018-11-29T21:06:31.753Z,85.39
2018-11-29T21:09:04.617Z,84.57
2018-11-29T21:11:37.616Z,85.26
2018-11-29T21:14:09.669Z,85.27
2018-11-29T21:16:44.285Z,84.12
2018-11-29T21:19:16.682Z,86.36
2018-11-29T21:21:49.779Z,85.36
2018-11-29T21:24:22.010Z,84.79
2018-11-29T21:26:54.132Z,85.39
2018-11-29T21:29:26.578Z,83.72
2018-11-29T21:31:59.182Z,82.23
2018-11-29T21:34:31.310Z,83.39
2018-11-29T21:37:03.443Z,83.96
2018-11-29T21:39:35.638Z,84.36
2018-11-29T21:42:07.865Z,83.28
2018-11-29T21:44:39.970Z,83.68
2018-11-29T21:47:12.148Z,84.01
2018-11-29T21:49:44.718Z,85.48
2018-11-29T21:52:17.008Z,85.41
2018-11-29T21:54:49.405Z,85.80
2018-11-29T21:57:21.982Z,85.65
2018-11-29T21:59:54.455Z,86.48
2018-11-29T22:02:29.690Z,85.90
2018-11-29T22:05:02.386Z,86.50
2018-11-29T22:07:35.158Z,87.36
2018-11-29T22:10:07.713Z,87.49
2018-11-29T22:12:40.826Z,88.11
2018-11-29T22:15:14.205Z,88.00
2018-11-29T22:18:21.855Z,87.19
2018-11-29T22:21:05.215Z,86.20
2018-11-29T22:23:39.339Z,86.37
2018-11-29T22:26:18.881Z,85.93
2018-11-29T22:28:51.359Z,86.51
2018-11-29T22:31:23.840Z,86.37
2018-11-29T22:33:56.400Z,87.09
2018-11-29T22:36:28.879Z,87.38
2018-11-29T22:39:01.363Z,87.05
2018-11-29T22:41:34.363Z,87.10
2018-11-29T22:44:06.731Z,86.14
2018-11-29T22:46:43.030Z,86.92
2018-11-29T22:49:15.123Z,86.96
2018-11-29T22:51:47.243Z,88.24
2018-11-29T22:54:19.323Z,86.83
2018-11-29T22:56:51.407Z,84.51
2018-11-29T22:59:23.524Z,83.59
2018-11-29T23:01:55.685Z,83.92
2018-11-29T23:04:27.769Z,83.40
2018-11-29T23:06:59.871Z,85.03
2018-11-29T23:09:32.865Z,84.32
2018-11-29T23:12:04.969Z,85.67
2018-11-29T23:14:37.940Z,85.91
2018-11-29T23:17:10.110Z,85.30
2018-11-29T23:19:42.239Z,84.58
2018-11-29T23:22:14.292Z,84.74
2018-11-29T23:24:46.378Z,83.60
2018-11-29T23:27:18.588Z,84.22
2018-11-29T23:29:50.690Z,82.82
2018-11-29T23:32:23.578Z,84.31
2018-11-29T23:34:55.687Z,84.37
2018-11-29T23:37:27.676Z,85.03
2018-11-29T23:39:59.807Z,85.13
2018-11-29T23:42:31.856Z,84.90
2018-11-29T23:45:05.491Z,85.46
2018-11-29T23:47:37.761Z,85.27
2018-11-29T23:50:20.198Z,84.11
2018-11-29T23:52:52.289Z,84.46
2018-11-29T23:55:24.943Z,84.69
2018-11-29T23:57:57.326Z,84.66
